1888 Tropical Storm NOT_NAMED (1888250N15330)


IBTrACS version v04r00. Visit IBTrACS website for data access.
Please direct all questions to the IBTrACS Q and A forum

Storm track - Intensity - Wind Radii - Intensity Data - Source Data - All data

Summary Information

Storm ID 1888250N15330
Start Sep 5 12Z
Max Intensity 50 kt (Sep 7 06Z)
End Sep 12 18Z
ATCF IDs
Track status Best track data.

Storm track plot

Map of storm track

Intensity plots

Map of storm track

Radial wind information

No radial wind information for this storm


Position and Intensity Table

BASIN ISO_TIME_________ NATURE LAT LON MLC WIND
degrees north degrees east kts
NA 1888-09-05 12:00:00 TS 15.20 -29.80 30
NA 15:00:00 TS 15.41 -30.60 30
NA 18:00:00 TS 15.60 -31.40 30
NA 21:00:00 TS 15.76 -32.20 30
NA 1888-09-06 00:00:00 TS 15.90 -33.00 30
NA 03:00:00 TS 16.05 -33.80 30
NA 06:00:00 TS 16.20 -34.60 30
NA 09:00:00 TS 16.31 -35.43 32
NA 12:00:00 TS 16.50 -36.20 35
NA 15:00:00 TS 16.90 -36.84 37
NA 18:00:00 TS 17.40 -37.40 40
NA 21:00:00 TS 17.85 -37.95 42
NA 1888-09-07 00:00:00 TS 18.30 -38.50 45
NA 03:00:00 TS 18.74 -39.10 47
NA 06:00:00 TS 19.20 -39.70 50
NA 09:00:00 TS 19.69 -40.31 50
NA 12:00:00 TS 20.20 -40.80 50
NA 15:00:00 TS 20.70 -41.05 50
NA 18:00:00 TS 21.20 -41.20 50
NA 21:00:00 TS 21.70 -41.40 50
NA 1888-09-08 00:00:00 TS 22.20 -41.60 50
NA 03:00:00 TS 22.70 -41.81 50
NA 06:00:00 TS 23.20 -42.00 50
NA 09:00:00 TS 23.71 -42.20 50
NA 12:00:00 TS 24.20 -42.30 50
NA 15:00:00 TS 24.62 -42.20 50
NA 18:00:00 TS 25.00 -42.00 50
NA 21:00:00 TS 25.41 -41.87 50
NA 1888-09-09 00:00:00 TS 25.80 -41.70 50
NA 03:00:00 TS 26.15 -41.43 50
NA 06:00:00 TS 26.50 -41.10 50
NA 09:00:00 TS 26.91 -40.79 50
NA 12:00:00 TS 27.30 -40.40 50
NA 15:00:00 TS 27.58 -39.88 50
NA 18:00:00 TS 27.80 -39.30 50
NA 21:00:00 TS 28.00 -38.75 50
NA 1888-09-10 00:00:00 TS 28.20 -38.20 50
NA 03:00:00 TS 28.44 -37.65 50
NA 06:00:00 TS 28.70 -37.10 50
NA 09:00:00 TS 28.92 -36.57 50
NA 12:00:00 TS 29.20 -36.00 50
NA 15:00:00 TS 29.62 -35.32 50
NA 18:00:00 TS 30.10 -34.60 50
NA 21:00:00 TS 30.55 -33.90 50
NA 1888-09-11 00:00:00 TS 31.00 -33.20 50
NA 03:00:00 TS 31.45 -32.50 50
NA 06:00:00 TS 31.90 -31.80 50
NA 09:00:00 TS 32.25 -31.11 50
NA 12:00:00 TS 32.80 -30.40 50
NA 15:00:00 TS 33.80 -29.62 50
NA 18:00:00 TS 35.00 -28.80 50
NA 21:00:00 TS 36.10 -28.00 50
NA 1888-09-12 00:00:00 TS 37.20 -27.20 50
NA 03:00:00 TS 38.31 -26.40 50
NA 06:00:00 TS 39.40 -25.60 50
NA 09:00:00 TS 40.29 -24.52 47
NA 12:00:00 TS 41.50 -24.00 45
NA 15:00:00 TS 43.43 -24.75 45
NA 18:00:00 ET 45.80 -26.40 45

Source Information

Agency Information
USA
TOKYO
CMA
HKO
NEWDELHI
REUNION
BOM
NADI
WELLINGTON
DS824
TD9636
TD9635
NEUMANN
MLC

All available IBTrACS Data

SEASON BASIN SUBBASIN ISO_TIME_________ NATURE LAT LON DIST2LAND LANDFALL IFLAG USA SSHS MLC LAT MLC LON MLC CLASS MLC WIND STORM SPEED STORM DIR
Year degrees north degrees east km km 1 degrees north degrees east kts kts degrees
1888 NA NA 1888-09-05 12:00:00 TS 15.20 -29.80 1323 1323 _____________O -1 15.20 -29.80 TD 30 16 285
1888 NA NA 15:00:00 TS 15.41 -30.60 1409 1409 _____________P -1 15.41 -30.60 TD 30 16 285
1888 NA NA 18:00:00 TS 15.60 -31.40 1495 1495 _____________O -1 15.60 -31.40 TD 30 16 283
1888 NA NA 21:00:00 TS 15.76 -32.20 1582 1582 _____________P -1 15.76 -32.20 TD 30 16 281
1888 NA NA 1888-09-06 00:00:00 TS 15.90 -33.00 1668 1668 _____________O -1 15.90 -33.00 TD 30 16 281
1888 NA NA 03:00:00 TS 16.05 -33.80 1754 1754 _____________P -1 16.05 -33.80 TD 30 16 281
1888 NA NA 06:00:00 TS 16.20 -34.60 1840 1840 _____________O -1 16.20 -34.60 TD 30 16 279
1888 NA NA 09:00:00 TS 16.31 -35.43 1926 1926 _____________P -1 16.31 -35.43 TD 32 16 281
1888 NA NA 12:00:00 TS 16.50 -36.20 2012 2012 _____________O -1 16.50 -36.20 TS 35 15 294
1888 NA NA 15:00:00 TS 16.90 -36.84 2079 2079 _____________P -1 16.90 -36.84 TS 37 15 308
1888 NA NA 18:00:00 TS 17.40 -37.40 2109 2101 _____________O -1 17.40 -37.40 TS 40 14 312
1888 NA NA 21:00:00 TS 17.85 -37.95 2093 2093 _____________P -1 17.85 -37.95 TS 42 14 311
1888 NA NA 1888-09-07 00:00:00 TS 18.30 -38.50 2096 2086 _____________O -1 18.30 -38.50 TS 45 14 309
1888 NA NA 03:00:00 TS 18.74 -39.10 2087 2084 _____________P -1 18.74 -39.10 TS 47 15 308
1888 NA NA 06:00:00 TS 19.20 -39.70 2090 2086 _____________O -1 19.20 -39.70 TS 50 15 310
1888 NA NA 09:00:00 TS 19.69 -40.31 2096 2090 _____________P -1 19.69 -40.31 TS 50 14 314
1888 NA NA 12:00:00 TS 20.20 -40.80 2109 2109 _____________O -1 20.20 -40.80 TS 50 12 325
1888 NA NA 15:00:00 TS 20.70 -41.05 2134 2134 _____________P -1 20.70 -41.05 TS 50 11 340
1888 NA NA 18:00:00 TS 21.20 -41.20 2172 2172 _____________O -1 21.20 -41.20 TS 50 11 342
1888 NA NA 21:00:00 TS 21.70 -41.40 2206 2206 _____________P -1 21.70 -41.40 TS 50 11 340
1888 NA NA 1888-09-08 00:00:00 TS 22.20 -41.60 2241 2241 _____________O -1 22.20 -41.60 TS 50 11 339
1888 NA NA 03:00:00 TS 22.70 -41.81 2276 2276 _____________P -1 22.70 -41.81 TS 50 11 340
1888 NA NA 06:00:00 TS 23.20 -42.00 2313 2313 _____________O -1 23.20 -42.00 TS 50 11 340
1888 NA NA 09:00:00 TS 23.71 -42.20 2351 2351 _____________P -1 23.71 -42.20 TS 50 10 345
1888 NA NA 12:00:00 TS 24.20 -42.30 2395 2395 _____________O -1 24.20 -42.30 TS 50 9 0
1888 NA NA 15:00:00 TS 24.62 -42.20 2438 2438 _____________P -1 24.62 -42.20 TS 50 8 19
1888 NA NA 18:00:00 TS 25.00 -42.00 2487 2487 _____________O -1 25.00 -42.00 TS 50 8 20
1888 NA NA 21:00:00 TS 25.41 -41.87 2503 2474 _____________P -1 25.41 -41.87 TS 50 8 19
1888 NA NA 1888-09-09 00:00:00 TS 25.80 -41.70 2474 2438 _____________O -1 25.80 -41.70 TS 50 8 28
1888 NA NA 03:00:00 TS 26.15 -41.43 2436 2400 _____________P -1 26.15 -41.43 TS 50 9 38
1888 NA NA 06:00:00 TS 26.50 -41.10 2400 2363 _____________O -1 26.50 -41.10 TS 50 10 37
1888 NA NA 09:00:00 TS 26.91 -40.79 2363 2317 _____________P -1 26.91 -40.79 TS 50 10 38
1888 NA NA 12:00:00 TS 27.30 -40.40 2317 2264 _____________O -1 27.30 -40.40 TS 50 10 50
1888 NA NA 15:00:00 TS 27.58 -39.88 2264 2203 _____________P -1 27.58 -39.88 TS 50 11 63
1888 NA NA 18:00:00 TS 27.80 -39.30 2203 2151 _____________O -1 27.80 -39.30 TS 50 11 67
1888 NA NA 21:00:00 TS 28.00 -38.75 2141 2090 _____________P -1 28.00 -38.75 TS 50 11 68
1888 NA NA 1888-09-10 00:00:00 TS 28.20 -38.20 2090 2040 _____________O -1 28.20 -38.20 TS 50 11 65
1888 NA NA 03:00:00 TS 28.44 -37.65 2030 1979 _____________P -1 28.44 -37.65 TS 50 11 63
1888 NA NA 06:00:00 TS 28.70 -37.10 1979 1929 _____________O -1 28.70 -37.10 TS 50 11 63
1888 NA NA 09:00:00 TS 28.92 -36.57 1929 1870 _____________P -1 28.92 -36.57 TS 50 11 63
1888 NA NA 12:00:00 TS 29.20 -36.00 1870 1811 _____________O -1 29.20 -36.00 TS 50 13 57
1888 NA NA 15:00:00 TS 29.62 -35.32 1801 1735 _____________P -1 29.62 -35.32 TS 50 15 54
1888 NA NA 18:00:00 TS 30.10 -34.60 1735 1670 _____________O -1 30.10 -34.60 TS 50 15 53
1888 NA NA 21:00:00 TS 30.55 -33.90 1670 1609 _____________P -1 30.55 -33.90 TS 50 15 53
1888 NA NA 1888-09-11 00:00:00 TS 31.00 -33.20 1609 1549 _____________O -1 31.00 -33.20 TS 50 15 53
1888 NA NA 03:00:00 TS 31.45 -32.50 1549 1494 _____________P -1 31.45 -32.50 TS 50 15 53
1888 NA NA 06:00:00 TS 31.90 -31.80 1494 1446 _____________O -1 31.90 -31.80 TS 50 14 56
1888 NA NA 09:00:00 TS 32.25 -31.11 1440 1392 _____________P -1 32.25 -31.11 TS 50 15 53
1888 NA NA 12:00:00 TS 32.80 -30.40 1392 1365 _____________O -1 32.80 -30.40 TS 50 20 39
1888 NA NA 15:00:00 TS 33.80 -29.62 1361 1350 _____________P -1 33.80 -29.62 TS 50 26 31
1888 NA NA 18:00:00 TS 35.00 -28.80 1356 1354 _____________O -1 35.00 -28.80 TS 50 27 30
1888 NA NA 21:00:00 TS 36.10 -28.00 1363 1362 _____________P -1 36.10 -28.00 TS 50 26 30
1888 NA NA 1888-09-12 00:00:00 TS 37.20 -27.20 1386 1386 _____________O -1 37.20 -27.20 TS 50 26 30
1888 NA NA 03:00:00 TS 38.31 -26.40 1425 1394 _____________P -1 38.31 -26.40 TS 50 25 30
1888 NA NA 06:00:00 TS 39.40 -25.60 1385 1299 _____________O -1 39.40 -25.60 TS 50 25 36
1888 NA NA 09:00:00 TS 40.29 -24.52 1290 1217 _____________P -1 40.29 -24.52 TS 47 24 30
1888 NA NA 12:00:00 TS 41.50 -24.00 1215 1206 _____________O -1 41.50 -24.00 TS 45 31 357
1888 NA NA 15:00:00 TS 43.43 -24.75 1250 1249 _____________P -1 43.43 -24.75 TS 45 46 338
1888 NA NA 18:00:00 ET 45.80 -26.40 1339 _____________O -1 45.80 -26.40 EX 45 53 334